Time;durP1;ratioP1;P1;durP2;ratioP2;P2;SDS_P1;SDS_P2;PMS_P1;PMS_P2;Temp;Humidity;BMP_temperature;BMP_pressure;BME280_temperature;BME280_humidity;BME280_pressure;Samples;Min_cycle;Max_cycle;Signal;HPM_P1;HPM_P2
2020/12/26 00:01:39;;;;;;;3.78;2.70;;;8.40;99.90;;;;;;5089827;28;20021;-80
2020/12/26 00:04:04;;;;;;;5.15;3.10;;;8.40;99.90;;;;;;5072469;28;20394;-81
2020/12/26 00:06:30;;;;;;;3.78;2.65;;;8.40;99.90;;;;;;5089569;28;20022;-80
2020/12/26 00:08:56;;;;;;;6.40;3.00;;;8.40;99.90;;;;;;5072265;28;20028;-80
2020/12/26 00:11:22;;;;;;;4.55;2.80;;;8.50;99.90;;;;;;5089281;28;20039;-79
2020/12/26 00:13:51;;;;;;;5.65;2.88;;;8.40;99.90;;;;;;5072530;28;20379;-83
2020/12/26 00:16:18;;;;;;;7.83;3.13;;;8.40;99.90;;;;;;5090421;28;20038;-80
2020/12/26 00:18:44;;;;;;;4.30;2.45;;;8.50;99.90;;;;;;5088929;28;20020;-80
2020/12/26 00:21:15;;;;;;;3.85;2.50;;;8.50;99.90;;;;;;5072305;28;20024;-81
2020/12/26 00:23:41;;;;;;;4.72;2.25;;;8.50;99.90;;;;;;5090407;28;20078;-82
2020/12/26 00:26:07;;;;;;;5.55;2.40;;;8.50;99.90;;;;;;5089932;28;20047;-82
2020/12/26 00:28:33;;;;;;;6.57;2.58;;;8.50;99.90;;;;;;5088709;28;20540;-83
2020/12/26 00:31:01;;;;;;;3.88;2.90;;;8.60;99.90;;;;;;5088855;28;20485;-81
2020/12/26 00:33:27;;;;;;;6.95;3.30;;;8.50;99.90;;;;;;5072066;28;20131;-82
2020/12/26 00:35:53;;;;;;;4.80;2.42;;;8.50;99.90;;;;;;5088852;28;20074;-82
2020/12/26 00:38:18;;;;;;;4.15;2.80;;;8.50;99.90;;;;;;5089955;28;20028;-81
2020/12/26 00:40:44;;;;;;;8.32;2.97;;;8.50;99.90;;;;;;5088611;28;20084;-80
2020/12/26 00:43:10;;;;;;;5.78;3.95;;;8.50;99.90;;;;;;5088181;28;20055;-80
2020/12/26 00:45:36;;;;;;;7.65;2.92;;;8.50;99.90;;;;;;5089978;28;20040;-82
2020/12/26 00:48:01;;;;;;;4.88;2.97;;;8.50;99.90;;;;;;5088795;28;20025;-82
2020/12/26 00:50:27;;;;;;;3.95;2.85;;;8.50;99.90;;;;;;5088554;28;20145;-80
2020/12/26 00:52:53;;;;;;;3.53;2.42;;;8.50;99.90;;;;;;5090164;28;20123;-81
2020/12/26 00:55:18;;;;;;;4.25;2.40;;;8.50;99.90;;;;;;5088617;28;20028;-80
2020/12/26 00:57:44;;;;;;;3.30;2.03;;;8.50;99.90;;;;;;5088233;28;20119;-83
2020/12/26 01:00:10;;;;;;;3.60;2.33;;;8.50;99.90;;;;;;5088474;28;20024;-81
2020/12/26 01:02:36;;;;;;;2.60;1.80;;;8.60;99.90;;;;;;5089594;28;20028;-80
2020/12/26 01:05:02;;;;;;;2.88;2.28;;;8.60;99.90;;;;;;5088252;28;20082;-80
2020/12/26 01:07:28;;;;;;;3.33;2.40;;;8.60;99.90;;;;;;5089479;28;20119;-80
2020/12/26 01:09:54;;;;;;;6.20;3.15;;;8.60;99.90;;;;;;5071454;28;20115;-80
2020/12/26 01:12:19;;;;;;;4.20;2.80;;;8.60;99.90;;;;;;5088008;28;20032;-80
2020/12/26 01:14:45;;;;;;;6.10;3.40;;;8.60;99.90;;;;;;5071571;28;20114;-82
2020/12/26 01:17:11;;;;;;;3.97;2.67;;;8.70;99.90;;;;;;5071401;28;20386;-79
2020/12/26 01:19:37;;;;;;;2.90;2.15;;;8.70;99.90;;;;;;5088514;28;20033;-80
2020/12/26 01:22:03;;;;;;;4.18;2.42;;;8.70;99.90;;;;;;5088182;28;20024;-82
2020/12/26 01:24:29;;;;;;;2.97;2.47;;;8.60;99.90;;;;;;5071759;28;20406;-81
2020/12/26 01:26:54;;;;;;;3.38;2.47;;;8.70;99.90;;;;;;5088013;28;20056;-80
2020/12/26 01:29:21;;;;;;;4.72;2.28;;;8.70;99.90;;;;;;5088517;28;20063;-80
2020/12/26 01:31:51;;;;;;;5.28;2.65;;;8.70;99.90;;;;;;5071208;28;20028;-79
2020/12/26 01:34:17;;;;;;;;;;;8.70;99.90;;;;;;5088732;28;20028;-82
2020/12/26 01:36:42;;;;;;;3.50;1.92;;;8.70;99.90;;;;;;5088341;28;20267;-83
2020/12/26 01:39:08;;;;;;;3.85;2.47;;;8.70;99.90;;;;;;5088503;28;20232;-82
2020/12/26 01:41:34;;;;;;;3.78;2.40;;;8.70;99.90;;;;;;5089074;28;20016;-82
2020/12/26 01:44:02;;;;;;;3.08;2.10;;;8.70;99.90;;;;;;5071260;28;20024;-82
2020/12/26 01:46:32;;;;;;;3.03;1.80;;;8.70;99.90;;;;;;5087802;28;20028;-79
2020/12/26 01:48:59;;;;;;;2.70;1.55;;;8.70;99.90;;;;;;5087362;28;20177;-80
2020/12/26 01:51:27;;;;;;;2.20;1.55;;;8.70;99.90;;;;;;5088814;28;20106;-78
2020/12/26 01:53:53;;;;;;;4.45;1.67;;;8.70;99.90;;;;;;5069932;28;20059;-80
2020/12/26 01:56:20;;;;;;;3.50;2.10;;;8.70;99.90;;;;;;5088060;28;20480;-82
2020/12/26 01:58:45;;;;;;;2.58;2.00;;;8.70;99.90;;;;;;5070320;28;20047;-82
2020/12/26 02:01:11;;;;;;;2.90;1.88;;;8.70;99.90;;;;;;5087607;28;20483;-83
2020/12/26 02:03:39;;;;;;;2.70;1.88;;;8.70;99.90;;;;;;5087479;28;20091;-80
2020/12/26 02:06:09;;;;;;;4.57;2.47;;;8.70;99.90;;;;;;5070888;28;20368;-80
2020/12/26 02:08:36;;;;;;;3.55;2.28;;;8.70;99.90;;;;;;5070372;28;20024;-81
2020/12/26 02:11:06;;;;;;;3.58;2.50;;;8.70;99.90;;;;;;5070625;28;20036;-81
2020/12/26 02:13:32;;;;;;;4.35;2.53;;;8.70;99.90;;;;;;5087327;28;20047;-80
2020/12/26 02:16:17;;;;;;;4.00;2.70;;;8.80;99.90;;;;;;5087444;28;20557;-84
2020/12/26 02:18:42;;;;;;;3.50;2.38;;;8.70;99.90;;;;;;5087246;28;20047;-80
2020/12/26 02:21:08;;;;;;;4.28;2.70;;;8.80;99.90;;;;;;5087371;28;20056;-80
2020/12/26 02:23:42;;;;;;;5.85;3.10;;;8.80;99.90;;;;;;5088892;28;20021;-83
2020/12/26 02:26:07;;;;;;;2.33;1.88;;;8.70;99.90;;;;;;5088586;28;20054;-83
2020/12/26 02:28:33;;;;;;;4.65;2.15;;;8.80;99.90;;;;;;5088782;28;20028;-81
2020/12/26 02:30:59;;;;;;;8.55;2.78;;;8.80;99.90;;;;;;5070435;28;20079;-83
2020/12/26 02:33:24;;;;;;;5.82;1.55;;;8.80;99.90;;;;;;5087413;28;20040;-83
2020/12/26 02:35:50;;;;;;;6.07;1.38;;;8.80;99.90;;;;;;5087615;28;20030;-83
2020/12/26 02:38:17;;;;;;;4.25;1.13;;;8.80;99.90;;;;;;5087560;28;20024;-81
2020/12/26 02:40:45;;;;;;;7.90;1.48;;;8.80;99.90;;;;;;5088564;28;20024;-83
2020/12/26 02:43:22;;;;;;;4.63;0.93;;;8.80;99.90;;;;;;5088627;28;20475;-81
2020/12/26 02:45:49;;;;;;;10.65;1.40;;;8.70;99.90;;;;;;5087207;28;20073;-81
2020/12/26 02:48:15;;;;;;;13.48;2.22;;;8.60;99.90;;;;;;5088377;28;20020;-81
2020/12/26 02:50:41;;;;;;;10.63;1.50;;;8.50;99.90;;;;;;5087368;28;20043;-83
2020/12/26 02:53:07;;;;;;;7.53;1.75;;;8.40;99.90;;;;;;5087162;28;20032;-80
2020/12/26 02:55:33;;;;;;;14.88;2.53;;;8.40;99.90;;;;;;5087180;28;20044;-81
2020/12/26 02:57:59;;;;;;;10.82;2.67;;;8.40;99.90;;;;;;5087189;28;20031;-81
2020/12/26 03:00:25;;;;;;;11.50;1.45;;;8.30;99.90;;;;;;5088209;28;20398;-81
2020/12/26 03:02:50;;;;;;;11.48;2.10;;;8.30;99.90;;;;;;5088561;28;20024;-81
2020/12/26 03:05:16;;;;;;;9.45;1.23;;;8.20;99.90;;;;;;5089272;28;20061;-83
2020/12/26 03:07:42;;;;;;;7.18;1.58;;;8.10;99.90;;;;;;5091221;28;20493;-80
2020/12/26 03:10:07;;;;;;;12.77;1.60;;;8.00;99.90;;;;;;5074128;28;20080;-80
2020/12/26 03:12:33;;;;;;;15.38;2.15;;;8.00;99.90;;;;;;5090768;28;20088;-83
2020/12/26 03:14:59;;;;;;;19.63;2.67;;;7.90;99.90;;;;;;5090697;28;20043;-85
2020/12/26 03:17:24;;;;;;;17.20;2.65;;;7.90;99.90;;;;;;5090518;28;20028;-80
2020/12/26 03:19:50;;;;;;;11.65;1.98;;;7.90;99.90;;;;;;5090982;28;20059;-81
2020/12/26 03:22:16;;;;;;;13.95;1.95;;;8.00;99.90;;;;;;5090990;28;20363;-81
2020/12/26 03:24:41;;;;;;;11.60;1.77;;;8.10;99.90;;;;;;5090941;28;20415;-84
2020/12/26 03:27:07;;;;;;;11.20;1.98;;;8.10;99.90;;;;;;5090673;28;20471;-83
2020/12/26 03:29:33;;;;;;;10.73;1.77;;;8.10;99.90;;;;;;5073843;28;20032;-82
2020/12/26 03:31:59;;;;;;;13.60;1.83;;;8.00;99.90;;;;;;5074242;28;20060;-80
2020/12/26 03:34:24;;;;;;;14.27;1.75;;;8.00;99.90;;;;;;5073510;28;20068;-84
2020/12/26 03:36:50;;;;;;;19.23;2.55;;;8.00;99.90;;;;;;5090249;28;20077;-84
2020/12/26 03:39:16;;;;;;;8.95;1.95;;;8.00;99.90;;;;;;5073293;28;20024;-81
2020/12/26 03:41:41;;;;;;;11.35;1.85;;;8.00;99.90;;;;;;5090474;28;20032;-80
2020/12/26 03:44:07;;;;;;;14.52;2.30;;;8.00;99.90;;;;;;5091713;28;20059;-82
2020/12/26 03:46:33;;;;;;;13.27;2.60;;;8.10;99.90;;;;;;5073293;28;20034;-80
2020/12/26 03:48:58;;;;;;;12.20;2.08;;;8.10;99.90;;;;;;5090048;28;20382;-82
2020/12/26 03:51:24;;;;;;;14.13;1.55;;;8.10;99.90;;;;;;5090079;28;20028;-82
2020/12/26 03:53:50;;;;;;;18.45;2.38;;;8.20;99.90;;;;;;5072883;28;20064;-80
2020/12/26 03:56:16;;;;;;;15.80;2.78;;;8.10;99.90;;;;;;5089791;28;20032;-82
2020/12/26 03:58:42;;;;;;;12.63;1.98;;;8.10;99.90;;;;;;5072963;28;20028;-80
2020/12/26 04:01:08;;;;;;;23.70;3.70;;;8.20;99.90;;;;;;5090992;28;20016;-80
2020/12/26 04:03:33;;;;;;;16.27;2.35;;;8.10;99.90;;;;;;5072905;28;20028;-82
2020/12/26 04:05:59;;;;;;;19.83;2.58;;;8.10;99.90;;;;;;5089621;28;20026;-83
2020/12/26 04:08:25;;;;;;;22.17;2.25;;;8.00;99.90;;;;;;5089636;28;20390;-82
2020/12/26 04:10:51;;;;;;;21.40;2.45;;;8.00;99.90;;;;;;5089848;28;20031;-82
2020/12/26 04:13:17;;;;;;;12.18;2.50;;;8.00;99.90;;;;;;5090988;28;20025;-83
2020/12/26 04:15:42;;;;;;;22.70;2.55;;;8.00;99.90;;;;;;5072635;28;20103;-83
2020/12/26 04:18:08;;;;;;;23.15;2.10;;;8.00;99.90;;;;;;5088305;28;20060;-80
2020/12/26 04:20:34;;;;;;;22.52;2.45;;;8.10;99.90;;;;;;5072496;28;20478;-80
2020/12/26 04:22:59;;;;;;;20.58;3.08;;;8.10;99.90;;;;;;5072592;28;20091;-80
2020/12/26 04:25:25;;;;;;;17.85;1.90;;;8.10;99.90;;;;;;5072320;28;20024;-83
2020/12/26 04:27:51;;;;;;;23.40;2.85;;;8.10;99.90;;;;;;5088964;28;20452;-82
2020/12/26 04:30:16;;;;;;;18.70;2.85;;;8.20;99.90;;;;;;5072204;28;20421;-80
2020/12/26 04:32:42;;;;;;;14.50;2.15;;;8.20;99.90;;;;;;5088916;28;20028;-84
2020/12/26 04:35:08;;;;;;;17.15;3.05;;;8.20;99.90;;;;;;5071927;28;20055;-81
2020/12/26 04:37:33;;;;;;;20.92;3.42;;;8.20;99.90;;;;;;5088919;28;20028;-82
2020/12/26 04:39:59;;;;;;;22.15;2.78;;;8.20;99.90;;;;;;5088985;28;20429;-82
2020/12/26 04:42:25;;;;;;;19.52;2.72;;;8.20;99.90;;;;;;5088735;28;20285;-80
2020/12/26 04:44:52;;;;;;;22.17;2.92;;;8.20;99.90;;;;;;5088775;28;20024;-80
2020/12/26 04:47:43;;;;;;;22.20;3.42;;;8.20;99.90;;;;;;5088540;28;20024;-79
2020/12/26 04:50:08;;;;;;;34.08;4.65;;;8.20;99.90;;;;;;5088149;28;20444;-81
2020/12/26 04:52:36;;;;;;;24.73;3.03;;;8.20;99.90;;;;;;5071402;28;20033;-79
2020/12/26 04:55:04;;;;;;;20.38;3.45;;;8.30;99.90;;;;;;5071662;28;20024;-81
2020/12/26 04:57:34;;;;;;;18.50;2.40;;;8.20;99.90;;;;;;5089773;28;20073;-81
2020/12/26 05:00:01;;;;;;;24.58;3.47;;;8.30;99.90;;;;;;5088447;28;20400;-81
2020/12/26 05:02:35;;;;;;;28.35;3.30;;;8.20;99.90;;;;;;5089412;28;20032;-80
2020/12/26 05:05:04;;;;;;;23.42;3.35;;;8.30;99.90;;;;;;5089556;28;20077;-80
2020/12/26 05:07:32;;;;;;;8.57;2.45;;;8.30;99.90;;;;;;5088265;28;20027;-80
2020/12/26 05:09:58;;;;;;;21.13;3.42;;;8.30;99.90;;;;;;5088158;28;20068;-81
2020/12/26 05:12:24;;;;;;;24.70;3.05;;;8.20;99.90;;;;;;5089398;28;20103;-79
2020/12/26 05:14:51;;;;;;;17.70;3.20;;;8.30;99.90;;;;;;5087994;28;20127;-81
2020/12/26 05:17:19;;;;;;;18.70;2.72;;;8.20;99.90;;;;;;5088072;28;20045;-83
2020/12/26 05:19:46;;;;;;;27.50;4.07;;;8.30;99.90;;;;;;5087734;28;20110;-80
2020/12/26 05:22:12;;;;;;;16.00;2.08;;;8.30;99.90;;;;;;5089117;28;20049;-81
2020/12/26 05:24:37;;;;;;;15.57;2.78;;;8.30;99.90;;;;;;5088026;28;20074;-81
2020/12/26 05:27:03;;;;;;;15.82;2.42;;;8.30;99.90;;;;;;5070695;28;20064;-80
2020/12/26 05:29:31;;;;;;;25.88;3.53;;;8.20;99.90;;;;;;5070644;28;20103;-81
2020/12/26 05:31:58;;;;;;;20.83;3.10;;;8.30;99.90;;;;;;5089229;28;20107;-81
2020/12/26 05:34:36;;;;;;;21.17;3.15;;;8.30;99.90;;;;;;5087654;28;20511;-79
2020/12/26 05:37:03;;;;;;;29.80;3.88;;;8.30;99.90;;;;;;5070613;28;20555;-80
2020/12/26 05:39:37;;;;;;;20.77;2.90;;;8.30;99.80;;;;;;5087507;28;20120;-81
2020/12/26 05:42:04;;;;;;;26.58;4.65;;;8.30;99.80;;;;;;5087237;28;20053;-79
2020/12/26 05:44:32;;;;;;;22.55;3.17;;;8.30;99.80;;;;;;5088690;28;20466;-80
2020/12/26 05:47:03;;;;;;;22.83;2.45;;;8.30;99.80;;;;;;5088561;28;20059;-79
2020/12/26 05:49:34;;;;;;;19.88;3.58;;;8.30;99.70;;;;;;5088603;28;20024;-79
2020/12/26 05:52:09;;;;;;;30.15;3.92;;;8.30;99.70;;;;;;5088547;28;20016;-82
2020/12/26 05:54:37;;;;;;;16.23;4.20;;;8.30;99.70;;;;;;5088420;28;20017;-81
2020/12/26 05:57:10;;;;;;;26.55;3.75;;;8.30;99.70;;;;;;5087096;28;20103;-79
2020/12/26 05:59:36;;;;;;;18.17;2.22;;;8.30;99.70;;;;;;5088442;28;20024;-81
2020/12/26 06:02:21;;;;;;;22.75;3.65;;;8.30;99.70;;;;;;5070337;28;20024;-79
2020/12/26 06:05:05;;;;;;;24.83;2.95;;;8.30;99.80;;;;;;5088263;28;20016;-80
2020/12/26 06:07:36;;;;;;;15.57;2.40;;;8.30;99.80;;;;;;5088446;28;20357;-82
2020/12/26 06:10:04;;;;;;;17.67;2.30;;;8.30;99.80;;;;;;5087373;28;20032;-81
2020/12/26 06:12:30;;;;;;;24.77;4.63;;;8.30;99.80;;;;;;5088149;28;20020;-81
2020/12/26 06:14:57;;;;;;;22.90;3.70;;;8.30;99.80;;;;;;5088358;28;20112;-81
2020/12/26 06:17:31;;;;;;;19.55;3.80;;;8.30;99.80;;;;;;5088306;28;20032;-81
2020/12/26 06:19:59;;;;;;;28.15;2.83;;;8.20;99.90;;;;;;5086780;28;20036;-79
2020/12/26 06:22:41;;;;;;;23.15;3.13;;;8.30;99.90;;;;;;5086746;28;20050;-80
2020/12/26 06:25:13;;;;;;;25.05;3.40;;;8.30;99.90;;;;;;5088249;28;20065;-81
2020/12/26 06:27:51;;;;;;;19.58;3.17;;;8.30;99.90;;;;;;5086472;28;20058;-81
2020/12/26 06:30:16;;;;;;;24.85;4.60;;;8.20;99.90;;;;;;5088180;28;20126;-80
2020/12/26 06:32:46;;;;;;;24.05;2.53;;;8.20;99.90;;;;;;5070046;28;20114;-80
2020/12/26 06:35:15;;;;;;;;;;;8.20;99.90;;;;;;5087168;28;20109;-80
2020/12/26 06:37:41;;;;;;;24.55;3.00;;;8.20;99.90;;;;;;5088121;28;19912;-81
2020/12/26 06:40:28;;;;;;;13.35;2.70;;;8.20;99.90;;;;;;5070654;28;20138;-81
2020/12/26 06:42:55;;;;;;;24.15;3.28;;;8.20;99.90;;;;;;5090736;28;20020;-80
2020/12/26 06:45:34;;;;;;;21.02;2.65;;;8.20;99.90;;;;;;5091954;28;20051;-78
2020/12/26 06:48:00;;;;;;;19.75;2.67;;;8.20;99.90;;;;;;5092281;28;20024;-78
2020/12/26 06:50:28;;;;;;;21.08;3.72;;;8.20;99.90;;;;;;5073730;28;20036;-81
2020/12/26 06:52:54;;;;;;;18.25;3.97;;;8.20;99.90;;;;;;5091939;28;20035;-80
2020/12/26 06:55:40;;;;;;;27.08;2.78;;;8.20;99.90;;;;;;5091853;28;20020;-80
2020/12/26 06:58:22;;;;;;;20.48;3.80;;;8.30;99.90;;;;;;5090352;28;20036;-80
2020/12/26 07:00:48;;;;;;;23.27;2.97;;;8.30;99.70;;;;;;5090508;28;20028;-80
2020/12/26 07:03:16;;;;;;;21.63;3.75;;;8.30;99.60;;;;;;5073835;28;20531;-78
2020/12/26 07:05:43;;;;;;;21.15;3.35;;;8.30;99.50;;;;;;5090818;28;20020;-78
2020/12/26 07:08:30;;;;;;;23.35;3.63;;;8.30;99.30;;;;;;5091791;28;20103;-80
2020/12/26 07:10:58;;;;;;;17.88;2.22;;;8.30;99.30;;;;;;5091717;28;20016;-79
2020/12/26 07:13:43;;;;;;;26.60;3.85;;;8.30;99.20;;;;;;5091858;28;20031;-80
2020/12/26 07:16:35;;;;;;;15.82;2.55;;;8.20;99.20;;;;;;5090329;28;20063;-79
2020/12/26 07:19:32;;;;;;;29.58;4.18;;;8.20;99.20;;;;;;5091399;28;20500;-79
2020/12/26 07:22:11;;;;;;;18.38;2.53;;;8.20;99.10;;;;;;5076612;28;20494;-79
2020/12/26 07:24:39;;;;;;;21.27;2.60;;;8.20;99.10;;;;;;5090145;28;20486;-79
2020/12/26 07:27:19;;;;;;;18.52;2.42;;;8.20;99.00;;;;;;5073038;28;20060;-78
2020/12/26 07:29:57;;;;;;;21.20;4.25;;;8.20;99.00;;;;;;5073218;28;20036;-79
2020/12/26 07:32:42;;;;;;;22.65;3.00;;;8.20;99.00;;;;;;5089869;28;20474;-79
2020/12/26 07:35:19;;;;;;;23.55;3.13;;;8.20;99.10;;;;;;5089821;28;20061;-80
2020/12/26 07:37:51;;;;;;;15.90;2.38;;;8.20;99.00;;;;;;5091011;28;20036;-79
2020/12/26 07:40:18;;;;;;;15.00;2.55;;;8.20;99.00;;;;;;5090965;28;20553;-79
2020/12/26 07:42:44;;;;;;;20.63;2.75;;;8.10;99.10;;;;;;5089693;28;20020;-79
2020/12/26 07:45:15;;;;;;;31.83;3.65;;;8.10;99.20;;;;;;5072699;28;20024;-78
2020/12/26 07:47:47;;;;;;;25.48;4.45;;;8.10;99.20;;;;;;5090712;28;20043;-78
2020/12/26 07:50:15;;;;;;;23.70;2.40;;;8.00;99.30;;;;;;5090958;28;20038;-79
2020/12/26 07:52:46;;;;;;;15.07;2.97;;;7.90;99.40;;;;;;5089275;28;20028;-80
2020/12/26 07:55:12;;;;;;;27.38;3.67;;;7.80;99.50;;;;;;5089523;28;20486;-81
2020/12/26 07:57:39;;;;;;;19.58;4.05;;;7.80;99.60;;;;;;5089424;28;20067;-81
2020/12/26 08:00:05;;;;;;;22.25;3.38;;;7.70;99.60;;;;;;5072549;28;20028;-79
2020/12/26 08:02:31;;;;;;;16.88;2.72;;;7.70;99.60;;;;;;5072391;28;20436;-80
2020/12/26 08:04:57;;;;;;;14.35;2.28;;;7.70;99.60;;;;;;5089252;28;20039;-79
2020/12/26 08:07:24;;;;;;;24.85;3.42;;;7.70;99.70;;;;;;5072366;28;20032;-78
2020/12/26 08:09:54;;;;;;;15.75;3.47;;;7.70;99.80;;;;;;5089307;28;20025;-80
2020/12/26 08:12:21;;;;;;;20.25;3.40;;;7.70;99.70;;;;;;5089195;28;20074;-80
2020/12/26 08:14:58;;;;;;;23.80;2.92;;;7.70;99.70;;;;;;5090759;28;20032;-79
2020/12/26 08:17:24;;;;;;;22.42;3.20;;;7.80;99.70;;;;;;5089119;28;20486;-79
2020/12/26 08:20:00;;;;;;;23.42;4.57;;;7.80;99.70;;;;;;5072397;28;20028;-79
2020/12/26 08:22:27;;;;;;;19.20;3.17;;;7.80;99.60;;;;;;5089048;28;20505;-81
2020/12/26 08:25:07;;;;;;;25.17;4.00;;;7.90;99.60;;;;;;5090257;28;20060;-78
2020/12/26 08:27:33;;;;;;;18.85;2.80;;;7.90;99.60;;;;;;5088630;28;20135;-80
2020/12/26 08:30:05;;;;;;;23.27;4.50;;;7.90;99.50;;;;;;5089942;28;20113;-81
2020/12/26 08:32:38;;;;;;;23.58;3.03;;;8.00;99.50;;;;;;5090263;28;20072;-78
2020/12/26 08:35:08;;;;;;;15.77;2.70;;;8.00;99.40;;;;;;5090085;28;20024;-79
2020/12/26 08:37:39;;;;;;;22.40;3.17;;;8.00;99.30;;;;;;5088454;28;20079;-79
2020/12/26 08:40:13;;;;;;;15.90;2.80;;;8.00;99.30;;;;;;5089974;28;20032;-80
2020/12/26 08:42:38;;;;;;;22.67;2.55;;;8.00;99.20;;;;;;5088573;28;20024;-78
2020/12/26 08:45:24;;;;;;;26.40;3.53;;;8.00;99.20;;;;;;5071827;28;20481;-80
2020/12/26 08:47:50;;;;;;;25.83;4.47;;;8.00;99.10;;;;;;5090090;28;20062;-78
2020/12/26 08:50:16;;;;;;;22.23;4.03;;;8.00;99.00;;;;;;5089851;28;20060;-79
2020/12/26 08:52:44;;;;;;;22.52;3.60;;;8.00;99.00;;;;;;5089458;28;20035;-81
2020/12/26 08:55:09;;;;;;;22.88;4.22;;;8.00;99.00;;;;;;5088265;28;20032;-80
2020/12/26 08:57:36;;;;;;;23.65;3.22;;;8.00;99.00;;;;;;5088522;28;20028;-80
2020/12/26 09:00:22;;;;;;;28.25;2.95;;;7.90;99.00;;;;;;5088296;28;20029;-81
2020/12/26 09:02:49;;;;;;;22.05;2.47;;;8.00;99.00;;;;;;5087517;28;20056;-78
2020/12/26 09:05:21;;;;;;;26.52;2.80;;;8.10;98.90;;;;;;5087761;28;20024;-79
2020/12/26 09:07:47;;;;;;;21.15;3.13;;;8.00;98.80;;;;;;5089323;28;20024;-81
2020/12/26 09:10:13;;;;;;;19.63;3.22;;;8.10;98.80;;;;;;5087702;28;20085;-79
2020/12/26 09:12:38;;;;;;;15.75;2.47;;;8.10;98.80;;;;;;5071196;28;20032;-81
2020/12/26 09:15:04;;;;;;;24.05;3.47;;;8.10;98.90;;;;;;5089429;28;20039;-81
2020/12/26 09:17:30;;;;;;;21.40;2.47;;;8.10;98.80;;;;;;5087804;28;20028;-81
2020/12/26 09:19:57;;;;;;;21.60;3.58;;;8.10;98.80;;;;;;5070768;28;20029;-79
2020/12/26 09:22:28;;;;;;;16.33;3.17;;;8.10;98.70;;;;;;5087582;28;20060;-80
2020/12/26 09:24:53;;;;;;;26.75;3.28;;;8.20;98.70;;;;;;5087538;28;20037;-81
2020/12/26 09:27:22;;;;;;;26.70;4.07;;;8.20;98.70;;;;;;5087574;28;20052;-81
2020/12/26 09:29:54;;;;;;;25.92;3.28;;;8.20;98.70;;;;;;5087379;28;20371;-79
2020/12/26 09:32:20;;;;;;;19.17;4.32;;;8.20;98.70;;;;;;5088892;28;20024;-80
2020/12/26 09:34:46;;;;;;;26.77;3.25;;;8.20;98.60;;;;;;5087738;28;20111;-79
2020/12/26 09:37:11;;;;;;;35.78;4.15;;;8.30;98.60;;;;;;5087288;28;20124;-80
2020/12/26 09:39:38;;;;;;;18.23;3.15;;;8.30;98.60;;;;;;5088771;28;20028;-81
2020/12/26 09:42:04;;;;;;;20.90;2.88;;;8.30;98.60;;;;;;5087189;28;20032;-79
2020/12/26 09:44:30;;;;;;;22.77;2.83;;;8.30;98.50;;;;;;5087673;28;20054;-80
2020/12/26 09:46:58;;;;;;;17.35;2.58;;;8.30;98.50;;;;;;5088364;28;20028;-81
2020/12/26 09:49:24;;;;;;;18.15;3.10;;;8.30;98.40;;;;;;5071001;28;20417;-80
2020/12/26 09:51:49;;;;;;;25.63;2.92;;;8.30;98.40;;;;;;5087665;28;20050;-80
2020/12/26 09:54:15;;;;;;;23.98;4.30;;;8.40;98.30;;;;;;5087479;28;20028;-79
2020/12/26 09:56:41;;;;;;;21.50;5.22;;;8.30;98.30;;;;;;5087557;28;20391;-80
2020/12/26 09:59:06;;;;;;;22.48;2.85;;;8.40;98.20;;;;;;5070390;28;20035;-79
2020/12/26 10:01:34;;;;;;;17.70;3.25;;;8.40;98.20;;;;;;5070213;28;20036;-81
2020/12/26 10:04:00;;;;;;;25.20;3.50;;;8.40;98.20;;;;;;5087531;28;20429;-81
2020/12/26 10:06:25;;;;;;;22.63;3.42;;;8.40;98.00;;;;;;5087584;28;20020;-80
2020/12/26 10:08:51;;;;;;;19.75;3.40;;;8.40;98.00;;;;;;5086954;28;20452;-81
2020/12/26 10:11:18;;;;;;;23.77;4.18;;;8.40;98.00;;;;;;5087347;28;20048;-79
2020/12/26 10:13:45;;;;;;;21.80;3.08;;;8.30;98.00;;;;;;5070251;28;20470;-81
2020/12/26 10:16:12;;;;;;;16.95;3.20;;;8.30;98.10;;;;;;5087274;28;20084;-79
2020/12/26 10:18:38;;;;;;;15.27;2.47;;;8.40;98.20;;;;;;5086991;28;20028;-78
2020/12/26 10:21:04;;;;;;;25.73;3.28;;;8.40;98.20;;;;;;5087946;28;20020;-81
2020/12/26 10:23:30;;;;;;;19.55;3.42;;;8.40;98.20;;;;;;5069800;28;20028;-80
2020/12/26 10:26:03;;;;;;;18.65;3.35;;;8.40;98.20;;;;;;5086494;28;20393;-79
2020/12/26 10:28:30;;;;;;;24.38;4.18;;;8.40;98.10;;;;;;5087957;28;20524;-80
2020/12/26 10:30:55;;;;;;;30.92;5.82;;;8.40;98.20;;;;;;5070012;28;20028;-81
2020/12/26 10:33:21;;;;;;;21.45;2.65;;;8.40;98.20;;;;;;5069612;28;20529;-82
2020/12/26 10:35:46;;;;;;;17.30;2.38;;;8.40;98.20;;;;;;5070069;28;20032;-82
2020/12/26 10:38:12;;;;;;;29.20;3.17;;;8.40;98.20;;;;;;5086551;28;20085;-82
2020/12/26 10:40:38;;;;;;;15.93;2.90;;;8.50;98.20;;;;;;5086480;28;20045;-81
2020/12/26 10:43:03;;;;;;;17.15;2.63;;;8.50;98.30;;;;;;5086206;28;20142;-78
2020/12/26 10:45:29;;;;;;;19.48;2.75;;;8.50;98.20;;;;;;5086600;28;20020;-81
2020/12/26 10:47:55;;;;;;;14.18;2.95;;;8.50;98.20;;;;;;5069566;28;20032;-80
2020/12/26 10:50:21;;;;;;;16.65;3.00;;;8.50;98.20;;;;;;5069316;28;20032;-79
2020/12/26 10:52:46;;;;;;;18.63;3.70;;;8.60;98.20;;;;;;5069513;28;20497;-80
2020/12/26 10:55:14;;;;;;;19.65;3.17;;;8.60;98.20;;;;;;5086097;28;20419;-80
2020/12/26 10:57:40;;;;;;;25.88;4.47;;;8.70;98.20;;;;;;5068968;28;20093;-82
2020/12/26 11:00:06;;;;;;;20.23;4.30;;;8.70;98.20;;;;;;5086482;28;20032;-79
2020/12/26 11:02:32;;;;;;;23.83;4.55;;;8.70;98.20;;;;;;5085893;28;20496;-79
2020/12/26 11:04:58;;;;;;;25.88;4.55;;;8.80;98.10;;;;;;5069593;28;20115;-79
2020/12/26 11:07:23;;;;;;;23.83;4.55;;;8.80;98.10;;;;;;5069307;28;20128;-81
2020/12/26 11:09:49;;;;;;;22.80;4.45;;;8.80;98.10;;;;;;5069534;28;20499;-80
2020/12/26 11:12:15;;;;;;;29.17;5.40;;;8.90;98.00;;;;;;5086351;28;20435;-81
2020/12/26 11:14:40;;;;;;;10.68;2.58;;;8.90;97.90;;;;;;5069241;28;20033;-80
2020/12/26 11:17:06;;;;;;;23.77;4.55;;;9.00;97.80;;;;;;5069445;28;20035;-80
2020/12/26 11:19:32;;;;;;;27.33;3.47;;;9.00;97.80;;;;;;5069195;28;20039;-81
2020/12/26 11:21:58;;;;;;;17.10;3.72;;;9.00;97.80;;;;;;5085891;28;20501;-81
2020/12/26 11:24:23;;;;;;;20.58;3.17;;;9.10;97.80;;;;;;5069373;28;20032;-81
2020/12/26 11:26:49;;;;;;;26.20;4.28;;;9.10;97.70;;;;;;5089184;28;20051;-81
2020/12/26 11:29:15;;;;;;;26.05;5.07;;;9.10;97.70;;;;;;5091267;28;20351;-81
2020/12/26 11:31:42;;;;;;;19.98;3.88;;;9.10;97.70;;;;;;5089939;28;20052;-82
2020/12/26 11:34:11;;;;;;;19.50;3.20;;;9.10;97.80;;;;;;5089969;28;20035;-81
2020/12/26 11:36:37;;;;;;;20.58;3.97;;;9.20;97.60;;;;;;5090985;28;20055;-80
2020/12/26 11:39:03;;;;;;;23.98;3.58;;;9.20;97.50;;;;;;5090945;28;20042;-79
2020/12/26 11:41:29;;;;;;;18.83;3.63;;;9.20;97.50;;;;;;5072891;28;20457;-81
2020/12/26 11:43:56;;;;;;;23.45;3.55;;;9.20;97.40;;;;;;5089618;28;20032;-80
2020/12/26 11:46:23;;;;;;;18.23;3.13;;;9.30;97.40;;;;;;5072929;28;20393;-80
2020/12/26 11:48:49;;;;;;;16.60;3.13;;;9.30;97.40;;;;;;5072784;28;20032;-79
2020/12/26 11:51:15;;;;;;;17.50;3.00;;;9.30;97.30;;;;;;5073230;28;20387;-82
2020/12/26 11:53:41;;;;;;;25.23;3.22;;;9.30;97.30;;;;;;5073074;28;20036;-83
2020/12/26 11:56:14;;;;;;;24.58;3.35;;;9.30;97.30;;;;;;5089597;28;20024;-78
2020/12/26 11:58:41;;;;;;;24.65;3.95;;;9.30;97.30;;;;;;5090899;28;20099;-79
2020/12/26 12:01:08;;;;;;;16.25;2.65;;;9.20;97.20;;;;;;5090889;28;20511;-80
2020/12/26 12:03:35;;;;;;;11.88;2.65;;;9.30;97.20;;;;;;5089487;28;20028;-81
2020/12/26 12:06:01;;;;;;;16.30;3.15;;;9.30;97.10;;;;;;5089724;28;20030;-79
2020/12/26 12:08:27;;;;;;;15.75;3.00;;;9.30;97.10;;;;;;5089746;28;20028;-80
2020/12/26 12:10:52;;;;;;;13.85;2.10;;;9.30;97.10;;;;;;5088936;28;20028;-79
2020/12/26 12:13:19;;;;;;;14.80;2.70;;;9.30;97.10;;;;;;5089397;28;20039;-82
2020/12/26 12:15:44;;;;;;;12.02;3.85;;;9.30;97.10;;;;;;5089665;28;20028;-80
2020/12/26 12:18:10;;;;;;;28.17;3.92;;;9.40;97.10;;;;;;5090582;28;20367;-82
2020/12/26 12:20:36;;;;;;;19.30;3.55;;;9.40;97.00;;;;;;5089216;28;20028;-81
2020/12/26 12:23:03;;;;;;;16.35;2.85;;;9.40;97.00;;;;;;5090431;28;20429;-82
2020/12/26 12:25:29;;;;;;;14.25;2.90;;;9.30;96.90;;;;;;5089627;28;20032;-81
2020/12/26 12:27:56;;;;;;;16.45;3.75;;;9.40;96.90;;;;;;5072451;28;20056;-80
2020/12/26 12:30:23;;;;;;;8.73;2.08;;;9.30;96.80;;;;;;5088659;28;20081;-81
2020/12/26 12:32:49;;;;;;;12.25;2.88;;;9.30;96.80;;;;;;5090197;28;20046;-84
2020/12/26 12:35:15;;;;;;;17.33;2.40;;;9.30;96.90;;;;;;5089780;28;20028;-81
2020/12/26 12:37:53;;;;;;;14.43;2.45;;;9.30;96.80;;;;;;5088428;28;20028;-82
2020/12/26 12:40:19;;;;;;;20.08;3.20;;;9.30;96.80;;;;;;5088250;28;20020;-81
2020/12/26 12:42:46;;;;;;;17.50;3.13;;;9.30;96.80;;;;;;5087980;28;20035;-82
2020/12/26 12:45:12;;;;;;;13.45;2.53;;;9.30;96.80;;;;;;5071983;28;20119;-79
2020/12/26 12:47:38;;;;;;;17.65;3.38;;;9.30;96.70;;;;;;5087855;28;20035;-80
2020/12/26 12:50:07;;;;;;;15.07;3.22;;;9.30;96.80;;;;;;5087751;28;20157;-83
2020/12/26 12:52:33;;;;;;;15.48;2.90;;;9.30;96.70;;;;;;5086829;28;20046;-82
2020/12/26 12:54:58;;;;;;;20.98;3.40;;;9.40;96.70;;;;;;5087364;28;20039;-82